UAL1499 KAUS-KEWR
Flight info
| Callsign | UAL1499 |
|---|---|
| Flight time | 3h 16m |
| Altitude | 37000 |
| Route | ILEXY4 ZENZI LFK SUTTN J29 CARIN MEMFS Q29 DORET J584 SLT FQM3 |
| Aircraft | B739/M-SDE2E3FGHIRWXY/LB1 |
Departure
| Time | 2026-04-26 14:47 |
|---|---|
| Airport | Austin Bergstrom International Airport (KAUS) |
Arrival
| Time | 2026-04-26 18:03 |
|---|---|
| Airport | Newark Liberty International Airport (KEWR) |
| Time | Latitude | Longitude | Altitude | Speed | Heading |
|---|---|---|---|---|---|
| 2026-04-26 14:19 | 30.20268 | -97.66966 | 513 ft | 0 kts | 148° |
| 2026-04-26 14:35 | 30.20270 | -97.66968 | 513 ft | 2 kts | 148° |
| 2026-04-26 14:36 | 30.20285 | -97.66979 | 513 ft | 3 kts | 148° |
| 2026-04-26 14:36 | 30.20302 | -97.66991 | 513 ft | 3 kts | 148° |
| 2026-04-26 14:36 | 30.20320 | -97.67003 | 512 ft | 3 kts | 148° |
| 2026-04-26 14:36 | 30.20322 | -97.67005 | 512 ft | 9 kts | 148° |
| 2026-04-26 14:40 | 30.20311 | -97.67017 | 513 ft | 4 kts | 258° |
| 2026-04-26 14:40 | 30.20320 | -97.67084 | 513 ft | 13 kts | 275° |
| 2026-04-26 14:40 | 30.20321 | -97.67209 | 514 ft | 16 kts | 263° |
| 2026-04-26 14:40 | 30.20251 | -97.67258 | 513 ft | 13 kts | 176° |
| 2026-04-26 14:41 | 30.20162 | -97.67256 | 511 ft | 13 kts | 178° |
| 2026-04-26 14:41 | 30.20091 | -97.67296 | 511 ft | 12 kts | 243° |
| 2026-04-26 14:41 | 30.20021 | -97.67338 | 509 ft | 12 kts | 179° |
| 2026-04-26 14:41 | 30.19931 | -97.67336 | 507 ft | 14 kts | 182° |
| 2026-04-26 14:42 | 30.19840 | -97.67324 | 505 ft | 10 kts | 149° |
| 2026-04-26 14:42 | 30.19822 | -97.67243 | 504 ft | 12 kts | 88° |
| 2026-04-26 14:42 | 30.19825 | -97.67121 | 506 ft | 18 kts | 88° |
| 2026-04-26 14:42 | 30.19827 | -97.66958 | 506 ft | 23 kts | 90° |
| 2026-04-26 14:43 | 30.19827 | -97.66827 | 505 ft | 26 kts | 87° |
| 2026-04-26 14:43 | 30.19838 | -97.66542 | 503 ft | 26 kts | 89° |
| 2026-04-26 14:43 | 30.19840 | -97.66407 | 501 ft | 25 kts | 89° |
| 2026-04-26 14:43 | 30.19843 | -97.66214 | 492 ft | 23 kts | 90° |
| 2026-04-26 14:44 | 30.19845 | -97.66034 | 485 ft | 20 kts | 79° |
| 2026-04-26 14:44 | 30.19959 | -97.65990 | 483 ft | 19 kts | 358° |
| 2026-04-26 14:44 | 30.20089 | -97.65993 | 483 ft | 18 kts | 358° |
| 2026-04-26 14:44 | 30.20215 | -97.65996 | 484 ft | 18 kts | 358° |
| 2026-04-26 14:45 | 30.20326 | -97.65997 | 475 ft | 13 kts | 12° |
| 2026-04-26 14:45 | 30.20366 | -97.65950 | 479 ft | 13 kts | 70° |
| 2026-04-26 14:45 | 30.20375 | -97.65817 | 481 ft | 11 kts | 101° |
| 2026-04-26 14:45 | 30.20313 | -97.65787 | 481 ft | 10 kts | 177° |
| 2026-04-26 14:46 | 30.20208 | -97.65784 | 479 ft | 31 kts | 179° |
| 2026-04-26 14:46 | 30.19756 | -97.65771 | 486 ft | 97 kts | 179° |
| 2026-04-26 14:46 | 30.18895 | -97.65754 | 513 ft | 148 kts | 179° |
| 2026-04-26 14:46 | 30.17753 | -97.65737 | 760 ft | 166 kts | 181° |
| 2026-04-26 14:47 | 30.16624 | -97.65763 | 1402 ft | 169 kts | 177° |
| 2026-04-26 14:47 | 30.15374 | -97.65704 | 1764 ft | 185 kts | 173° |
| 2026-04-26 14:47 | 30.14217 | -97.65071 | 2215 ft | 193 kts | 130° |
| 2026-04-26 14:47 | 30.13768 | -97.63549 | 2404 ft | 217 kts | 86° |
| 2026-04-26 14:48 | 30.14323 | -97.61841 | 2612 ft | 240 kts | 62° |
| 2026-04-26 14:48 | 30.15223 | -97.60158 | 2977 ft | 252 kts | 61° |
| 2026-04-26 14:48 | 30.16194 | -97.58378 | 3213 ft | 272 kts | 60° |
| 2026-04-26 14:48 | 30.17214 | -97.56510 | 3870 ft | 277 kts | 60° |
| 2026-04-26 14:49 | 30.18235 | -97.54615 | 4598 ft | 280 kts | 60° |
| 2026-04-26 14:49 | 30.19265 | -97.52677 | 5270 ft | 285 kts | 60° |
| 2026-04-26 14:49 | 30.20302 | -97.50706 | 5954 ft | 288 kts | 60° |
| 2026-04-26 14:49 | 30.21344 | -97.48705 | 6612 ft | 292 kts | 60° |
| 2026-04-26 14:50 | 30.22397 | -97.46676 | 7224 ft | 297 kts | 60° |
| 2026-04-26 14:50 | 30.23462 | -97.44624 | 7887 ft | 299 kts | 59° |
| 2026-04-26 14:50 | 30.24538 | -97.42550 | 8501 ft | 302 kts | 59° |
| 2026-04-26 14:50 | 30.25614 | -97.40474 | 9082 ft | 306 kts | 59° |
| 2026-04-26 14:51 | 30.26714 | -97.38346 | 9665 ft | 309 kts | 59° |
| 2026-04-26 14:51 | 30.27821 | -97.36202 | 10260 ft | 312 kts | 58° |
| 2026-04-26 14:51 | 30.28968 | -97.33977 | 10437 ft | 331 kts | 58° |
| 2026-04-26 14:51 | 30.30182 | -97.31623 | 10592 ft | 349 kts | 58° |
| 2026-04-26 14:52 | 30.31441 | -97.29177 | 10734 ft | 366 kts | 58° |
| 2026-04-26 14:52 | 30.32762 | -97.26610 | 11063 ft | 375 kts | 58° |
| 2026-04-26 14:52 | 30.34099 | -97.24004 | 11566 ft | 378 kts | 58° |
| 2026-04-26 14:52 | 30.35243 | -97.21243 | 12163 ft | 382 kts | 70° |
| 2026-04-26 14:53 | 30.35809 | -97.18230 | 12723 ft | 387 kts | 83° |
| 2026-04-26 14:53 | 30.35802 | -97.15098 | 13267 ft | 392 kts | 94° |
| 2026-04-26 14:53 | 30.35564 | -97.11938 | 13822 ft | 396 kts | 94° |
| 2026-04-26 14:53 | 30.35335 | -97.08747 | 14350 ft | 400 kts | 94° |
| 2026-04-26 14:54 | 30.35127 | -97.05514 | 14874 ft | 405 kts | 93° |
| 2026-04-26 14:54 | 30.34934 | -97.02241 | 15417 ft | 409 kts | 93° |
| 2026-04-26 14:54 | 30.34747 | -96.98984 | 15989 ft | 412 kts | 93° |
| 2026-04-26 14:54 | 30.34556 | -96.95658 | 16527 ft | 416 kts | 93° |
| 2026-04-26 14:55 | 30.34359 | -96.92303 | 17027 ft | 420 kts | 93° |
| 2026-04-26 14:55 | 30.34157 | -96.88914 | 17504 ft | 425 kts | 93° |
| 2026-04-26 14:55 | 30.33951 | -96.85487 | 18011 ft | 428 kts | 93° |
| 2026-04-26 14:55 | 30.33744 | -96.82026 | 18501 ft | 432 kts | 93° |
| 2026-04-26 14:56 | 30.33535 | -96.78543 | 18960 ft | 436 kts | 93° |
| 2026-04-26 14:56 | 30.33319 | -96.75026 | 19422 ft | 440 kts | 93° |
| 2026-04-26 14:56 | 30.33099 | -96.71483 | 19865 ft | 444 kts | 93° |
| 2026-04-26 14:56 | 30.32874 | -96.67904 | 20310 ft | 447 kts | 93° |
| 2026-04-26 14:57 | 30.32647 | -96.64295 | 20728 ft | 451 kts | 93° |
| 2026-04-26 14:57 | 30.32419 | -96.60656 | 21138 ft | 455 kts | 93° |
| 2026-04-26 14:57 | 30.32216 | -96.56990 | 21498 ft | 459 kts | 89° |
| 2026-04-26 14:57 | 30.32490 | -96.53301 | 21776 ft | 462 kts | 76° |
| 2026-04-26 14:58 | 30.33401 | -96.49741 | 22132 ft | 462 kts | 65° |
| 2026-04-26 14:58 | 30.34800 | -96.46408 | 22520 ft | 460 kts | 57° |
| 2026-04-26 14:58 | 30.36362 | -96.43164 | 22883 ft | 463 kts | 57° |
| 2026-04-26 14:58 | 30.37955 | -96.39910 | 23220 ft | 466 kts | 56° |
| 2026-04-26 14:59 | 30.39557 | -96.36638 | 23525 ft | 469 kts | 57° |
| 2026-04-26 14:59 | 30.41142 | -96.33371 | 23842 ft | 473 kts | 57° |
| 2026-04-26 14:59 | 30.42746 | -96.30031 | 24167 ft | 475 kts | 57° |
| 2026-04-26 14:59 | 30.43831 | -96.27757 | 24379 ft | 477 kts | 57° |
| 2026-04-26 15:00 | 30.45958 | -96.23271 | 24800 ft | 481 kts | 57° |
| 2026-04-26 15:00 | 30.47563 | -96.19863 | 25099 ft | 483 kts | 57° |
| 2026-04-26 15:00 | 30.49183 | -96.16421 | 25397 ft | 486 kts | 57° |
| 2026-04-26 15:00 | 30.50808 | -96.12974 | 25686 ft | 489 kts | 57° |
| 2026-04-26 15:01 | 30.52440 | -96.09505 | 25998 ft | 491 kts | 57° |
| 2026-04-26 15:01 | 30.54076 | -96.06027 | 26292 ft | 493 kts | 57° |
| 2026-04-26 15:01 | 30.55732 | -96.02512 | 26574 ft | 496 kts | 57° |
| 2026-04-26 15:01 | 30.57371 | -95.99036 | 26870 ft | 498 kts | 57° |
| 2026-04-26 15:02 | 30.59030 | -95.95500 | 27175 ft | 499 kts | 57° |
| 2026-04-26 15:02 | 30.60688 | -95.91954 | 27454 ft | 501 kts | 57° |
| 2026-04-26 15:02 | 30.62356 | -95.88387 | 27702 ft | 503 kts | 57° |
| 2026-04-26 15:02 | 30.64029 | -95.84810 | 27958 ft | 506 kts | 57° |
| 2026-04-26 15:03 | 30.65716 | -95.81211 | 28227 ft | 507 kts | 57° |
| 2026-04-26 15:03 | 30.67407 | -95.77599 | 28490 ft | 509 kts | 57° |
| 2026-04-26 15:03 | 30.69103 | -95.73978 | 28740 ft | 511 kts | 57° |
| 2026-04-26 15:03 | 30.70809 | -95.70328 | 29002 ft | 513 kts | 56° |
| 2026-04-26 15:04 | 30.72513 | -95.66674 | 29282 ft | 515 kts | 57° |
| 2026-04-26 15:04 | 30.74216 | -95.63016 | 29636 ft | 514 kts | 56° |
| 2026-04-26 15:04 | 30.75914 | -95.59363 | 30017 ft | 513 kts | 56° |
| 2026-04-26 15:04 | 30.77588 | -95.55758 | 30463 ft | 511 kts | 56° |
| 2026-04-26 15:05 | 30.79270 | -95.52130 | 30904 ft | 509 kts | 56° |
| 2026-04-26 15:05 | 30.80406 | -95.49680 | 31142 ft | 509 kts | 56° |
| 2026-04-26 15:05 | 30.82635 | -95.44869 | 31541 ft | 510 kts | 56° |
| 2026-04-26 15:05 | 30.84312 | -95.41243 | 31886 ft | 510 kts | 56° |
| 2026-04-26 15:06 | 30.85991 | -95.37611 | 32253 ft | 508 kts | 56° |
| 2026-04-26 15:06 | 30.87665 | -95.33992 | 32617 ft | 507 kts | 56° |
| 2026-04-26 15:06 | 30.89335 | -95.30377 | 32955 ft | 506 kts | 56° |
| 2026-04-26 15:06 | 30.91002 | -95.26764 | 33233 ft | 507 kts | 56° |
| 2026-04-26 15:07 | 30.94338 | -95.19522 | 33787 ft | 507 kts | 56° |
| 2026-04-26 15:07 | 30.95977 | -95.15956 | 34106 ft | 505 kts | 56° |
| 2026-04-26 15:07 | 30.97637 | -95.12343 | 34383 ft | 505 kts | 56° |
| 2026-04-26 15:08 | 30.99294 | -95.08732 | 34617 ft | 505 kts | 56° |
| 2026-04-26 15:08 | 31.00951 | -95.05121 | 34906 ft | 504 kts | 56° |
| 2026-04-26 15:08 | 31.02600 | -95.01518 | 35209 ft | 503 kts | 56° |
| 2026-04-26 15:08 | 31.04247 | -94.97922 | 35437 ft | 502 kts | 56° |
| 2026-04-26 15:09 | 31.05893 | -94.94325 | 35637 ft | 503 kts | 56° |
| 2026-04-26 15:09 | 31.07537 | -94.90727 | 35861 ft | 503 kts | 56° |
| 2026-04-26 15:09 | 31.09177 | -94.87131 | 36103 ft | 502 kts | 56° |
| 2026-04-26 15:09 | 31.10819 | -94.83528 | 36282 ft | 502 kts | 56° |
| 2026-04-26 15:10 | 31.12464 | -94.79918 | 36462 ft | 504 kts | 55° |
| 2026-04-26 15:10 | 31.13554 | -94.77523 | 36618 ft | 503 kts | 55° |
| 2026-04-26 15:10 | 31.15929 | -94.72887 | 36932 ft | 492 kts | 46° |
| 2026-04-26 15:10 | 31.18072 | -94.69867 | 36902 ft | 484 kts | 37° |
| 2026-04-26 15:11 | 31.20546 | -94.67272 | 36945 ft | 473 kts | 31° |
| 2026-04-26 15:11 | 31.23083 | -94.64844 | 36917 ft | 471 kts | 31° |
| 2026-04-26 15:11 | 31.28144 | -94.60032 | 36913 ft | 466 kts | 30° |
| 2026-04-26 15:12 | 31.33142 | -94.55229 | 36938 ft | 464 kts | 30° |
| 2026-04-26 15:12 | 31.38139 | -94.50381 | 36967 ft | 470 kts | 31° |
| 2026-04-26 15:13 | 31.43201 | -94.45439 | 36956 ft | 475 kts | 31° |
| 2026-04-26 15:13 | 31.48248 | -94.40503 | 36960 ft | 476 kts | 31° |
| 2026-04-26 15:14 | 31.53334 | -94.35515 | 36952 ft | 477 kts | 31° |
| 2026-04-26 15:14 | 31.58427 | -94.30527 | 36960 ft | 476 kts | 31° |
| 2026-04-26 15:15 | 31.63505 | -94.25544 | 36968 ft | 475 kts | 31° |
| 2026-04-26 15:15 | 31.68568 | -94.20567 | 36972 ft | 474 kts | 31° |
| 2026-04-26 15:16 | 31.73618 | -94.15589 | 36983 ft | 473 kts | 31° |
| 2026-04-26 15:16 | 31.78625 | -94.10650 | 36975 ft | 471 kts | 31° |
| 2026-04-26 15:17 | 31.82796 | -94.06538 | 36979 ft | 470 kts | 31° |
| 2026-04-26 15:17 | 31.88652 | -94.00751 | 36980 ft | 469 kts | 31° |
| 2026-04-26 15:18 | 31.93647 | -93.95804 | 36984 ft | 469 kts | 31° |
| 2026-04-26 15:18 | 31.98600 | -93.90892 | 36992 ft | 468 kts | 31° |
| 2026-04-26 15:19 | 32.03580 | -93.85946 | 37001 ft | 469 kts | 31° |
| 2026-04-26 15:19 | 32.08568 | -93.80988 | 37014 ft | 470 kts | 31° |
| 2026-04-26 15:20 | 32.13577 | -93.76001 | 37010 ft | 471 kts | 31° |
| 2026-04-26 15:20 | 32.18593 | -93.70995 | 37000 ft | 473 kts | 31° |
| 2026-04-26 15:21 | 32.23624 | -93.65966 | 36995 ft | 474 kts | 31° |
| 2026-04-26 15:21 | 32.28630 | -93.60955 | 36981 ft | 474 kts | 31° |
| 2026-04-26 15:22 | 32.33668 | -93.55909 | 36965 ft | 475 kts | 32° |
| 2026-04-26 15:22 | 32.38706 | -93.50851 | 36954 ft | 474 kts | 32° |
| 2026-04-26 15:23 | 32.43727 | -93.45789 | 36940 ft | 474 kts | 32° |
| 2026-04-26 15:23 | 32.48743 | -93.40733 | 36941 ft | 473 kts | 32° |
| 2026-04-26 15:24 | 32.53750 | -93.35683 | 36930 ft | 472 kts | 32° |
| 2026-04-26 15:24 | 32.58749 | -93.30636 | 36935 ft | 471 kts | 32° |
| 2026-04-26 15:25 | 32.62889 | -93.26449 | 36933 ft | 470 kts | 32° |
| 2026-04-26 15:25 | 32.68677 | -93.20584 | 36944 ft | 470 kts | 32° |
| 2026-04-26 15:26 | 32.73645 | -93.15550 | 36930 ft | 469 kts | 32° |
| 2026-04-26 15:26 | 32.78609 | -93.10508 | 36955 ft | 469 kts | 32° |
| 2026-04-26 15:27 | 32.83570 | -93.05458 | 36948 ft | 469 kts | 32° |
| 2026-04-26 15:27 | 32.88526 | -93.00409 | 36957 ft | 469 kts | 32° |
| 2026-04-26 15:28 | 32.93466 | -92.95368 | 36953 ft | 471 kts | 32° |
| 2026-04-26 15:28 | 32.98445 | -92.90281 | 36944 ft | 472 kts | 32° |
| 2026-04-26 15:29 | 33.03439 | -92.85168 | 36948 ft | 473 kts | 32° |
| 2026-04-26 15:30 | 33.13441 | -92.74904 | 36952 ft | 474 kts | 33° |
| 2026-04-26 15:30 | 33.18409 | -92.69790 | 36950 ft | 474 kts | 33° |
| 2026-04-26 15:31 | 33.25905 | -92.62066 | 36953 ft | 474 kts | 33° |
| 2026-04-26 15:32 | 33.31708 | -92.56074 | 36953 ft | 474 kts | 33° |
| 2026-04-26 15:32 | 33.37545 | -92.50037 | 36954 ft | 474 kts | 33° |
| 2026-04-26 15:33 | 33.43346 | -92.44028 | 36956 ft | 474 kts | 33° |
| 2026-04-26 15:33 | 33.48327 | -92.38859 | 36955 ft | 474 kts | 33° |
| 2026-04-26 15:34 | 33.52281 | -92.34247 | 36948 ft | 484 kts | 44° |
| 2026-04-26 15:34 | 33.56428 | -92.27851 | 36948 ft | 486 kts | 46° |
| 2026-04-26 15:35 | 33.60517 | -92.21387 | 36949 ft | 485 kts | 46° |
| 2026-04-26 15:35 | 33.64645 | -92.14993 | 36956 ft | 484 kts | 45° |
| 2026-04-26 15:36 | 33.68794 | -92.08623 | 36964 ft | 484 kts | 45° |
| 2026-04-26 15:36 | 33.72944 | -92.02251 | 36964 ft | 484 kts | 45° |
| 2026-04-26 15:37 | 33.77087 | -91.95871 | 36973 ft | 484 kts | 45° |
| 2026-04-26 15:37 | 33.81233 | -91.89475 | 36977 ft | 485 kts | 45° |
| 2026-04-26 15:38 | 33.85354 | -91.83109 | 36973 ft | 485 kts | 45° |
| 2026-04-26 15:38 | 33.89496 | -91.76688 | 36970 ft | 485 kts | 45° |
| 2026-04-26 15:39 | 33.93625 | -91.70255 | 36975 ft | 486 kts | 46° |
| 2026-04-26 15:39 | 33.97055 | -91.64901 | 36973 ft | 486 kts | 45° |
| 2026-04-26 15:40 | 34.01884 | -91.57356 | 36968 ft | 486 kts | 45° |
| 2026-04-26 15:40 | 34.06011 | -91.50897 | 36976 ft | 486 kts | 46° |
| 2026-04-26 15:41 | 34.10138 | -91.44432 | 36966 ft | 486 kts | 45° |
| 2026-04-26 15:41 | 34.14229 | -91.38008 | 36978 ft | 486 kts | 46° |
| 2026-04-26 15:42 | 34.18343 | -91.31537 | 36964 ft | 486 kts | 46° |
| 2026-04-26 15:42 | 34.22456 | -91.25055 | 36974 ft | 486 kts | 46° |
| 2026-04-26 15:43 | 34.26570 | -91.18561 | 36970 ft | 485 kts | 46° |
| 2026-04-26 15:44 | 34.32713 | -91.08845 | 36977 ft | 484 kts | 46° |
| 2026-04-26 15:44 | 34.38840 | -90.99126 | 36981 ft | 483 kts | 46° |
| 2026-04-26 15:45 | 34.44919 | -90.89462 | 36971 ft | 482 kts | 45° |
| 2026-04-26 15:46 | 34.51002 | -90.79759 | 36971 ft | 481 kts | 46° |
| 2026-04-26 15:46 | 34.54372 | -90.74380 | 36974 ft | 481 kts | 45° |
| 2026-04-26 15:47 | 34.61126 | -90.63573 | 36973 ft | 481 kts | 46° |
| 2026-04-26 15:48 | 34.65170 | -90.57084 | 36973 ft | 481 kts | 46° |
| 2026-04-26 15:48 | 34.69192 | -90.50627 | 36965 ft | 482 kts | 46° |
| 2026-04-26 15:49 | 34.73234 | -90.44120 | 36964 ft | 482 kts | 46° |
| 2026-04-26 15:49 | 34.77276 | -90.37599 | 36964 ft | 483 kts | 46° |
| 2026-04-26 15:50 | 34.81319 | -90.31069 | 36962 ft | 483 kts | 46° |
| 2026-04-26 15:50 | 34.85351 | -90.24544 | 36963 ft | 483 kts | 46° |
| 2026-04-26 15:51 | 34.89387 | -90.18001 | 36973 ft | 483 kts | 46° |
| 2026-04-26 15:51 | 34.93421 | -90.11452 | 36972 ft | 483 kts | 46° |
| 2026-04-26 15:52 | 34.97450 | -90.04898 | 36971 ft | 483 kts | 46° |
| 2026-04-26 15:52 | 35.01590 | -89.98484 | 36967 ft | 475 kts | 38° |
| 2026-04-26 15:53 | 35.06620 | -89.93523 | 36988 ft | 461 kts | 27° |
| 2026-04-26 15:53 | 35.11842 | -89.88959 | 36980 ft | 461 kts | 27° |
| 2026-04-26 15:54 | 35.17011 | -89.84393 | 36979 ft | 462 kts | 28° |
| 2026-04-26 15:54 | 35.22193 | -89.79759 | 36979 ft | 462 kts | 28° |
| 2026-04-26 15:55 | 35.27370 | -89.75102 | 36987 ft | 461 kts | 28° |
| 2026-04-26 15:55 | 35.32538 | -89.70444 | 36981 ft | 461 kts | 28° |
| 2026-04-26 15:56 | 35.37710 | -89.65777 | 36983 ft | 461 kts | 28° |
| 2026-04-26 15:56 | 35.42868 | -89.61110 | 36983 ft | 461 kts | 28° |
| 2026-04-26 15:57 | 35.48027 | -89.56443 | 36989 ft | 461 kts | 28° |
| 2026-04-26 15:57 | 35.53189 | -89.51766 | 37003 ft | 461 kts | 28° |
| 2026-04-26 15:58 | 35.58348 | -89.47081 | 36999 ft | 461 kts | 28° |
| 2026-04-26 15:58 | 35.63503 | -89.42394 | 37002 ft | 461 kts | 28° |
| 2026-04-26 15:59 | 35.68665 | -89.37696 | 37000 ft | 461 kts | 28° |
| 2026-04-26 15:59 | 35.73820 | -89.32988 | 37001 ft | 461 kts | 28° |
| 2026-04-26 16:00 | 35.78942 | -89.28312 | 37008 ft | 461 kts | 28° |
| 2026-04-26 16:00 | 35.84091 | -89.23599 | 37006 ft | 461 kts | 28° |
| 2026-04-26 16:01 | 35.89236 | -89.18880 | 37012 ft | 460 kts | 28° |
| 2026-04-26 16:01 | 35.94381 | -89.14157 | 37004 ft | 460 kts | 28° |
| 2026-04-26 16:02 | 35.99521 | -89.09428 | 37014 ft | 460 kts | 28° |
| 2026-04-26 16:02 | 36.04657 | -89.04697 | 37020 ft | 460 kts | 29° |
| 2026-04-26 16:03 | 36.09758 | -88.99993 | 37006 ft | 460 kts | 29° |
| 2026-04-26 16:03 | 36.14881 | -88.95254 | 37010 ft | 460 kts | 29° |
| 2026-04-26 16:04 | 36.19993 | -88.90504 | 37008 ft | 459 kts | 29° |
| 2026-04-26 16:04 | 36.25103 | -88.85750 | 37008 ft | 459 kts | 29° |
| 2026-04-26 16:05 | 36.30206 | -88.81000 | 36998 ft | 458 kts | 29° |
| 2026-04-26 16:05 | 36.35303 | -88.76245 | 37002 ft | 458 kts | 29° |
| 2026-04-26 16:06 | 36.40385 | -88.71498 | 37010 ft | 457 kts | 29° |
| 2026-04-26 16:06 | 36.45455 | -88.66757 | 37009 ft | 456 kts | 29° |
| 2026-04-26 16:07 | 36.50516 | -88.62015 | 37009 ft | 455 kts | 29° |
| 2026-04-26 16:07 | 36.55572 | -88.57270 | 37018 ft | 455 kts | 29° |
| 2026-04-26 16:08 | 36.60591 | -88.52550 | 37029 ft | 454 kts | 29° |
| 2026-04-26 16:08 | 36.65628 | -88.47808 | 37033 ft | 454 kts | 29° |
| 2026-04-26 16:09 | 36.70674 | -88.43050 | 37031 ft | 455 kts | 29° |
| 2026-04-26 16:09 | 36.75723 | -88.38278 | 37040 ft | 455 kts | 29° |
| 2026-04-26 16:10 | 36.80777 | -88.33494 | 37038 ft | 456 kts | 29° |
| 2026-04-26 16:10 | 36.85832 | -88.28701 | 37033 ft | 456 kts | 30° |
| 2026-04-26 16:11 | 36.90883 | -88.23902 | 37039 ft | 456 kts | 30° |
| 2026-04-26 16:11 | 36.95904 | -88.19125 | 37036 ft | 456 kts | 30° |
| 2026-04-26 16:12 | 37.00957 | -88.14309 | 37041 ft | 456 kts | 30° |
| 2026-04-26 16:12 | 37.08514 | -88.07093 | 37043 ft | 455 kts | 30° |
| 2026-04-26 16:13 | 37.13543 | -88.02279 | 37054 ft | 454 kts | 30° |
| 2026-04-26 16:13 | 37.18553 | -87.97476 | 37057 ft | 452 kts | 30° |
| 2026-04-26 16:14 | 37.23544 | -87.92684 | 37049 ft | 451 kts | 30° |
| 2026-04-26 16:15 | 37.31000 | -87.85513 | 37054 ft | 449 kts | 30° |
| 2026-04-26 16:15 | 37.35738 | -87.80446 | 37055 ft | 454 kts | 38° |
| 2026-04-26 16:16 | 37.42311 | -87.71808 | 37056 ft | 455 kts | 39° |
| 2026-04-26 16:16 | 37.46672 | -87.66045 | 37055 ft | 454 kts | 39° |
| 2026-04-26 16:17 | 37.51054 | -87.60329 | 37055 ft | 454 kts | 39° |
| 2026-04-26 16:17 | 37.55455 | -87.54619 | 37065 ft | 453 kts | 39° |
| 2026-04-26 16:18 | 37.62015 | -87.46081 | 37065 ft | 454 kts | 39° |
| 2026-04-26 16:19 | 37.68603 | -87.37480 | 37067 ft | 454 kts | 39° |
| 2026-04-26 16:20 | 37.74456 | -87.29826 | 37069 ft | 455 kts | 39° |
| 2026-04-26 16:20 | 37.81054 | -87.21174 | 37073 ft | 456 kts | 39° |
| 2026-04-26 16:21 | 37.85455 | -87.15383 | 37078 ft | 456 kts | 39° |
| 2026-04-26 16:21 | 37.89860 | -87.09583 | 37076 ft | 457 kts | 39° |
| 2026-04-26 16:22 | 37.94265 | -87.03772 | 37076 ft | 457 kts | 39° |
| 2026-04-26 16:22 | 37.98641 | -86.97987 | 37083 ft | 457 kts | 39° |
| 2026-04-26 16:23 | 38.03045 | -86.92153 | 37097 ft | 458 kts | 40° |
| 2026-04-26 16:23 | 38.07455 | -86.86301 | 37080 ft | 457 kts | 40° |
| 2026-04-26 16:24 | 38.11841 | -86.80464 | 37080 ft | 456 kts | 40° |
| 2026-04-26 16:24 | 38.16221 | -86.74637 | 37077 ft | 455 kts | 40° |
| 2026-04-26 16:25 | 38.20584 | -86.68815 | 37083 ft | 454 kts | 41° |
| 2026-04-26 16:25 | 38.24907 | -86.63035 | 37078 ft | 453 kts | 40° |
| 2026-04-26 16:26 | 38.29240 | -86.57234 | 37090 ft | 452 kts | 41° |
| 2026-04-26 16:26 | 38.33567 | -86.51427 | 37086 ft | 452 kts | 41° |
| 2026-04-26 16:27 | 38.37887 | -86.45621 | 37089 ft | 451 kts | 41° |
| 2026-04-26 16:27 | 38.42210 | -86.39800 | 37088 ft | 452 kts | 41° |
| 2026-04-26 16:28 | 38.46535 | -86.33966 | 37090 ft | 452 kts | 41° |
| 2026-04-26 16:28 | 38.50854 | -86.28130 | 37100 ft | 452 kts | 41° |
| 2026-04-26 16:29 | 38.55176 | -86.22278 | 37101 ft | 453 kts | 41° |
| 2026-04-26 16:29 | 38.59495 | -86.16415 | 37108 ft | 453 kts | 41° |
| 2026-04-26 16:30 | 38.63819 | -86.10537 | 37115 ft | 454 kts | 41° |
| 2026-04-26 16:30 | 38.68119 | -86.04679 | 37114 ft | 454 kts | 41° |
| 2026-04-26 16:31 | 38.72449 | -85.98770 | 37117 ft | 455 kts | 41° |
| 2026-04-26 16:31 | 38.76773 | -85.92858 | 37115 ft | 455 kts | 42° |
| 2026-04-26 16:32 | 38.80370 | -85.87934 | 37123 ft | 454 kts | 42° |
| 2026-04-26 16:32 | 38.85422 | -85.81005 | 37139 ft | 454 kts | 42° |
| 2026-04-26 16:33 | 38.89730 | -85.75080 | 37137 ft | 454 kts | 42° |
| 2026-04-26 16:33 | 38.94007 | -85.69186 | 37140 ft | 453 kts | 42° |
| 2026-04-26 16:34 | 38.98309 | -85.63249 | 37137 ft | 453 kts | 42° |
| 2026-04-26 16:34 | 39.02602 | -85.57316 | 37142 ft | 453 kts | 42° |
| 2026-04-26 16:35 | 39.06885 | -85.51383 | 37137 ft | 452 kts | 43° |
| 2026-04-26 16:35 | 39.11161 | -85.45443 | 37138 ft | 451 kts | 43° |
| 2026-04-26 16:36 | 39.15405 | -85.39540 | 37139 ft | 451 kts | 43° |
| 2026-04-26 16:36 | 39.19656 | -85.33616 | 37139 ft | 450 kts | 43° |
| 2026-04-26 16:37 | 39.23899 | -85.27692 | 37142 ft | 449 kts | 43° |
| 2026-04-26 16:37 | 39.27423 | -85.22766 | 37138 ft | 449 kts | 43° |
| 2026-04-26 16:38 | 39.32384 | -85.15816 | 37136 ft | 450 kts | 43° |
| 2026-04-26 16:38 | 39.36624 | -85.09862 | 37139 ft | 451 kts | 43° |
| 2026-04-26 16:39 | 39.40863 | -85.03895 | 37142 ft | 451 kts | 43° |
| 2026-04-26 16:39 | 39.45085 | -84.97945 | 37150 ft | 451 kts | 43° |
| 2026-04-26 16:40 | 39.49333 | -84.91947 | 37149 ft | 451 kts | 43° |
| 2026-04-26 16:40 | 39.53572 | -84.85948 | 37153 ft | 451 kts | 43° |
| 2026-04-26 16:41 | 39.57812 | -84.79936 | 37157 ft | 452 kts | 43° |
| 2026-04-26 16:41 | 39.62056 | -84.73910 | 37159 ft | 452 kts | 44° |
| 2026-04-26 16:42 | 39.66268 | -84.67914 | 37165 ft | 452 kts | 44° |
| 2026-04-26 16:42 | 39.70511 | -84.61859 | 37167 ft | 452 kts | 44° |
| 2026-04-26 16:43 | 39.74748 | -84.55804 | 37165 ft | 452 kts | 44° |
| 2026-04-26 16:43 | 39.78976 | -84.49752 | 37169 ft | 451 kts | 44° |
| 2026-04-26 16:44 | 39.83201 | -84.43696 | 37174 ft | 451 kts | 44° |
| 2026-04-26 16:44 | 39.87413 | -84.37645 | 37175 ft | 451 kts | 44° |
| 2026-04-26 16:45 | 39.91597 | -84.31619 | 37178 ft | 451 kts | 44° |
| 2026-04-26 16:45 | 39.95980 | -84.25800 | 37178 ft | 449 kts | 40° |
| 2026-04-26 16:46 | 40.00494 | -84.20180 | 37173 ft | 448 kts | 40° |
| 2026-04-26 16:46 | 40.05006 | -84.14540 | 37173 ft | 449 kts | 40° |
| 2026-04-26 16:47 | 40.09490 | -84.08869 | 37171 ft | 449 kts | 40° |
| 2026-04-26 16:47 | 40.13965 | -84.03177 | 37180 ft | 449 kts | 40° |
| 2026-04-26 16:48 | 40.18414 | -83.97508 | 37179 ft | 449 kts | 41° |
| 2026-04-26 16:48 | 40.22884 | -83.91799 | 37196 ft | 449 kts | 41° |
| 2026-04-26 16:49 | 40.27353 | -83.86077 | 37185 ft | 449 kts | 41° |
| 2026-04-26 16:49 | 40.31821 | -83.80350 | 37195 ft | 449 kts | 41° |
| 2026-04-26 16:50 | 40.36290 | -83.74612 | 37198 ft | 450 kts | 41° |
| 2026-04-26 16:50 | 40.40760 | -83.68861 | 37186 ft | 450 kts | 41° |
| 2026-04-26 16:51 | 40.45227 | -83.63106 | 37186 ft | 450 kts | 41° |
| 2026-04-26 16:51 | 40.49689 | -83.57339 | 37181 ft | 450 kts | 41° |
| 2026-04-26 16:52 | 40.53393 | -83.52538 | 37184 ft | 450 kts | 41° |
| 2026-04-26 16:52 | 40.58568 | -83.45820 | 37174 ft | 449 kts | 41° |
| 2026-04-26 16:53 | 40.63013 | -83.40041 | 37188 ft | 449 kts | 41° |
| 2026-04-26 16:53 | 40.67457 | -83.34253 | 37181 ft | 450 kts | 41° |
| 2026-04-26 16:54 | 40.71743 | -83.28221 | 37188 ft | 453 kts | 47° |
| 2026-04-26 16:54 | 40.75588 | -83.21628 | 37177 ft | 454 kts | 50° |
| 2026-04-26 16:55 | 40.79401 | -83.14970 | 37201 ft | 454 kts | 49° |
| 2026-04-26 16:55 | 40.83256 | -83.08344 | 37195 ft | 455 kts | 49° |
| 2026-04-26 16:56 | 40.89050 | -82.98465 | 37195 ft | 455 kts | 49° |
| 2026-04-26 16:57 | 40.92928 | -82.91840 | 37187 ft | 455 kts | 49° |
| 2026-04-26 16:57 | 40.98734 | -82.81885 | 37185 ft | 455 kts | 49° |
| 2026-04-26 16:58 | 41.01320 | -82.77441 | 37195 ft | 455 kts | 49° |
| 2026-04-26 16:59 | 41.08402 | -82.65247 | 37196 ft | 455 kts | 49° |
| 2026-04-26 17:00 | 41.15777 | -82.51581 | 37204 ft | 459 kts | 58° |
| 2026-04-26 17:00 | 41.20213 | -82.40360 | 37197 ft | 459 kts | 59° |
| 2026-04-26 17:01 | 41.23197 | -82.32868 | 37181 ft | 458 kts | 59° |
| 2026-04-26 17:01 | 41.26202 | -82.25396 | 37204 ft | 458 kts | 59° |
| 2026-04-26 17:02 | 41.29199 | -82.17937 | 37200 ft | 457 kts | 59° |
| 2026-04-26 17:02 | 41.32191 | -82.10472 | 37204 ft | 457 kts | 59° |
| 2026-04-26 17:03 | 41.35121 | -82.02967 | 37204 ft | 458 kts | 62° |
| 2026-04-26 17:03 | 41.37638 | -81.95162 | 37191 ft | 459 kts | 65° |
| 2026-04-26 17:04 | 41.39644 | -81.88615 | 37176 ft | 459 kts | 65° |
| 2026-04-26 17:04 | 41.42100 | -81.80755 | 37180 ft | 459 kts | 64° |
| 2026-04-26 17:05 | 41.44585 | -81.72916 | 37182 ft | 459 kts | 64° |
| 2026-04-26 17:05 | 41.47071 | -81.65076 | 37198 ft | 459 kts | 64° |
| 2026-04-26 17:06 | 41.49554 | -81.57225 | 37205 ft | 459 kts | 64° |
| 2026-04-26 17:06 | 41.52012 | -81.49429 | 37202 ft | 459 kts | 64° |
| 2026-04-26 17:07 | 41.54496 | -81.41518 | 37212 ft | 459 kts | 64° |
| 2026-04-26 17:07 | 41.56940 | -81.33717 | 37212 ft | 459 kts | 64° |
| 2026-04-26 17:08 | 41.59403 | -81.25838 | 37217 ft | 459 kts | 64° |
| 2026-04-26 17:08 | 41.61860 | -81.17963 | 37209 ft | 459 kts | 64° |
| 2026-04-26 17:09 | 41.63899 | -81.11418 | 37215 ft | 459 kts | 64° |
| 2026-04-26 17:09 | 41.66768 | -81.02188 | 37207 ft | 460 kts | 64° |
| 2026-04-26 17:10 | 41.69193 | -80.94342 | 37200 ft | 459 kts | 64° |
| 2026-04-26 17:10 | 41.71631 | -80.86438 | 37199 ft | 459 kts | 64° |
| 2026-04-26 17:11 | 41.74065 | -80.78529 | 37194 ft | 458 kts | 64° |
| 2026-04-26 17:11 | 41.76485 | -80.70647 | 37193 ft | 457 kts | 64° |
| 2026-04-26 17:12 | 41.79546 | -80.58609 | 37199 ft | 462 kts | 80° |
| 2026-04-26 17:13 | 41.79485 | -80.49966 | 37201 ft | 467 kts | 95° |
| 2026-04-26 17:13 | 41.79033 | -80.45652 | 37196 ft | 468 kts | 96° |
| 2026-04-26 17:14 | 41.77613 | -80.32717 | 37193 ft | 468 kts | 96° |
| 2026-04-26 17:14 | 41.76269 | -80.19765 | 37199 ft | 468 kts | 95° |
| 2026-04-26 17:15 | 41.74936 | -80.06784 | 37196 ft | 469 kts | 95° |
| 2026-04-26 17:16 | 41.74044 | -79.98189 | 37192 ft | 469 kts | 95° |
| 2026-04-26 17:16 | 41.73137 | -79.89526 | 37193 ft | 470 kts | 96° |
| 2026-04-26 17:17 | 41.72222 | -79.80863 | 37198 ft | 470 kts | 96° |
| 2026-04-26 17:17 | 41.71303 | -79.72202 | 37193 ft | 469 kts | 96° |
| 2026-04-26 17:18 | 41.70374 | -79.63541 | 37194 ft | 470 kts | 96° |
| 2026-04-26 17:18 | 41.69447 | -79.54946 | 37204 ft | 469 kts | 96° |
| 2026-04-26 17:19 | 41.68039 | -79.41982 | 37206 ft | 470 kts | 96° |
| 2026-04-26 17:19 | 41.67090 | -79.33324 | 37199 ft | 470 kts | 97° |
| 2026-04-26 17:20 | 41.66297 | -79.26117 | 37207 ft | 470 kts | 97° |
| 2026-04-26 17:20 | 41.65170 | -79.16000 | 37199 ft | 470 kts | 97° |
| 2026-04-26 17:21 | 41.64199 | -79.07351 | 37204 ft | 470 kts | 97° |
| 2026-04-26 17:21 | 41.63220 | -78.98700 | 37205 ft | 470 kts | 97° |
| 2026-04-26 17:22 | 41.62241 | -78.90054 | 37202 ft | 470 kts | 97° |
| 2026-04-26 17:22 | 41.61258 | -78.81418 | 37209 ft | 471 kts | 97° |
| 2026-04-26 17:23 | 41.60273 | -78.72815 | 37214 ft | 471 kts | 98° |
| 2026-04-26 17:23 | 41.59274 | -78.64151 | 37209 ft | 472 kts | 98° |
| 2026-04-26 17:24 | 41.58269 | -78.55488 | 37213 ft | 472 kts | 98° |
| 2026-04-26 17:24 | 41.57257 | -78.46824 | 37215 ft | 472 kts | 98° |
| 2026-04-26 17:25 | 41.56236 | -78.38155 | 37213 ft | 473 kts | 98° |
| 2026-04-26 17:25 | 41.55203 | -78.29464 | 37215 ft | 473 kts | 98° |
| 2026-04-26 17:26 | 41.54162 | -78.20740 | 36643 ft | 482 kts | 98° |
| 2026-04-26 17:26 | 41.53638 | -78.16368 | 36033 ft | 481 kts | 98° |
| 2026-04-26 17:26 | 41.53108 | -78.11958 | 35251 ft | 482 kts | 97° |
| 2026-04-26 17:27 | 41.52575 | -78.07536 | 34468 ft | 483 kts | 97° |
| 2026-04-26 17:27 | 41.52036 | -78.03075 | 33713 ft | 484 kts | 97° |
| 2026-04-26 17:27 | 41.51497 | -77.98637 | 33510 ft | 487 kts | 96° |
| 2026-04-26 17:27 | 41.50937 | -77.94168 | 33392 ft | 487 kts | 97° |
| 2026-04-26 17:28 | 41.50332 | -77.89776 | 33237 ft | 474 kts | 98° |
| 2026-04-26 17:28 | 41.49724 | -77.85579 | 33192 ft | 458 kts | 98° |
| 2026-04-26 17:28 | 41.49122 | -77.81485 | 33174 ft | 442 kts | 98° |
| 2026-04-26 17:28 | 41.48543 | -77.77528 | 33172 ft | 426 kts | 98° |
| 2026-04-26 17:29 | 41.47989 | -77.73708 | 33157 ft | 411 kts | 98° |
| 2026-04-26 17:29 | 41.47635 | -77.71258 | 33171 ft | 403 kts | 98° |
| 2026-04-26 17:29 | 41.46398 | -77.62592 | 33213 ft | 416 kts | 98° |
| 2026-04-26 17:30 | 41.45290 | -77.54846 | 33211 ft | 434 kts | 98° |
| 2026-04-26 17:30 | 41.44136 | -77.46842 | 33209 ft | 450 kts | 98° |
| 2026-04-26 17:31 | 41.42921 | -77.38511 | 33206 ft | 465 kts | 99° |
| 2026-04-26 17:31 | 41.41664 | -77.29919 | 33207 ft | 478 kts | 99° |
| 2026-04-26 17:32 | 41.40380 | -77.21177 | 33206 ft | 489 kts | 99° |
| 2026-04-26 17:32 | 41.39059 | -77.12257 | 33182 ft | 490 kts | 99° |
| 2026-04-26 17:33 | 41.37738 | -77.03369 | 33175 ft | 485 kts | 99° |
| 2026-04-26 17:33 | 41.37085 | -76.98997 | 32831 ft | 476 kts | 99° |
| 2026-04-26 17:34 | 41.35795 | -76.90376 | 31504 ft | 473 kts | 99° |
| 2026-04-26 17:34 | 41.35152 | -76.86091 | 30878 ft | 471 kts | 99° |
| 2026-04-26 17:34 | 41.34511 | -76.81835 | 30316 ft | 467 kts | 99° |
| 2026-04-26 17:34 | 41.33876 | -76.77667 | 29771 ft | 463 kts | 100° |
| 2026-04-26 17:35 | 41.33034 | -76.73545 | 29216 ft | 461 kts | 106° |
| 2026-04-26 17:35 | 41.31974 | -76.69533 | 28674 ft | 458 kts | 109° |
| 2026-04-26 17:35 | 41.30846 | -76.65596 | 28124 ft | 454 kts | 109° |
| 2026-04-26 17:35 | 41.29718 | -76.61680 | 27576 ft | 451 kts | 109° |
| 2026-04-26 17:36 | 41.28622 | -76.57798 | 27052 ft | 446 kts | 108° |
| 2026-04-26 17:36 | 41.27557 | -76.53936 | 26523 ft | 443 kts | 108° |
| 2026-04-26 17:36 | 41.26516 | -76.50100 | 25980 ft | 439 kts | 107° |
| 2026-04-26 17:36 | 41.25493 | -76.46291 | 25443 ft | 435 kts | 107° |
| 2026-04-26 17:37 | 41.24479 | -76.42514 | 24913 ft | 432 kts | 107° |
| 2026-04-26 17:37 | 41.23482 | -76.38818 | 24399 ft | 429 kts | 107° |
| 2026-04-26 17:37 | 41.22481 | -76.35108 | 23878 ft | 425 kts | 107° |
| 2026-04-26 17:38 | 41.20495 | -76.27763 | 22833 ft | 419 kts | 107° |
| 2026-04-26 17:38 | 41.19511 | -76.24131 | 22324 ft | 416 kts | 107° |
| 2026-04-26 17:38 | 41.18536 | -76.20544 | 21850 ft | 411 kts | 107° |
| 2026-04-26 17:38 | 41.17566 | -76.16983 | 21376 ft | 408 kts | 107° |
| 2026-04-26 17:39 | 41.16602 | -76.13446 | 20900 ft | 405 kts | 107° |
| 2026-04-26 17:39 | 41.15646 | -76.09947 | 20423 ft | 402 kts | 107° |
| 2026-04-26 17:39 | 41.14703 | -76.06501 | 19911 ft | 400 kts | 107° |
| 2026-04-26 17:39 | 41.13753 | -76.03032 | 19307 ft | 400 kts | 107° |
| 2026-04-26 17:40 | 41.12794 | -75.99539 | 18570 ft | 404 kts | 107° |
| 2026-04-26 17:40 | 41.12467 | -75.98351 | 18359 ft | 404 kts | 107° |
| 2026-04-26 17:40 | 41.10876 | -75.92575 | 17551 ft | 398 kts | 107° |
| 2026-04-26 17:40 | 41.09929 | -75.89140 | 17066 ft | 394 kts | 107° |
| 2026-04-26 17:41 | 41.08991 | -75.85742 | 16577 ft | 390 kts | 107° |
| 2026-04-26 17:41 | 41.08063 | -75.82384 | 16120 ft | 386 kts | 107° |
| 2026-04-26 17:41 | 41.07155 | -75.79100 | 15660 ft | 382 kts | 107° |
| 2026-04-26 17:41 | 41.06245 | -75.75812 | 15185 ft | 379 kts | 107° |
| 2026-04-26 17:42 | 41.05342 | -75.72555 | 14809 ft | 373 kts | 107° |
| 2026-04-26 17:42 | 41.04451 | -75.69342 | 14482 ft | 368 kts | 107° |
| 2026-04-26 17:42 | 41.03574 | -75.66178 | 14170 ft | 366 kts | 107° |
| 2026-04-26 17:42 | 41.02695 | -75.63015 | 13855 ft | 366 kts | 107° |
| 2026-04-26 17:43 | 41.01813 | -75.59849 | 13550 ft | 367 kts | 107° |
| 2026-04-26 17:43 | 41.00929 | -75.56678 | 13242 ft | 366 kts | 107° |
| 2026-04-26 17:43 | 41.00049 | -75.53532 | 12922 ft | 364 kts | 107° |
| 2026-04-26 17:43 | 40.99171 | -75.50396 | 12622 ft | 361 kts | 107° |
| 2026-04-26 17:44 | 40.98299 | -75.47287 | 12307 ft | 358 kts | 107° |
| 2026-04-26 17:44 | 40.97435 | -75.44206 | 12015 ft | 356 kts | 107° |
| 2026-04-26 17:44 | 40.96578 | -75.41152 | 11706 ft | 353 kts | 107° |
| 2026-04-26 17:44 | 40.95737 | -75.38156 | 11430 ft | 351 kts | 108° |
| 2026-04-26 17:45 | 40.94892 | -75.35147 | 11139 ft | 346 kts | 108° |
| 2026-04-26 17:45 | 40.94051 | -75.32161 | 10833 ft | 338 kts | 108° |
| 2026-04-26 17:45 | 40.93241 | -75.29287 | 10550 ft | 330 kts | 108° |
| 2026-04-26 17:45 | 40.92455 | -75.26500 | 10280 ft | 323 kts | 108° |
| 2026-04-26 17:46 | 40.91676 | -75.23748 | 10017 ft | 316 kts | 108° |
| 2026-04-26 17:46 | 40.90921 | -75.21073 | 9926 ft | 303 kts | 108° |
| 2026-04-26 17:46 | 40.90201 | -75.18524 | 9910 ft | 289 kts | 108° |
| 2026-04-26 17:46 | 40.89512 | -75.16087 | 9762 ft | 281 kts | 108° |
| 2026-04-26 17:47 | 40.88831 | -75.13684 | 9565 ft | 277 kts | 108° |
| 2026-04-26 17:47 | 40.88603 | -75.12882 | 9505 ft | 276 kts | 108° |
| 2026-04-26 17:47 | 40.87496 | -75.08981 | 9063 ft | 272 kts | 108° |
| 2026-04-26 17:47 | 40.86833 | -75.06645 | 8772 ft | 270 kts | 108° |
| 2026-04-26 17:48 | 40.86181 | -75.04331 | 8500 ft | 267 kts | 108° |
| 2026-04-26 17:48 | 40.85537 | -75.02034 | 8190 ft | 266 kts | 108° |
| 2026-04-26 17:48 | 40.84893 | -74.99748 | 7885 ft | 264 kts | 108° |
| 2026-04-26 17:48 | 40.84263 | -74.97516 | 7587 ft | 262 kts | 108° |
| 2026-04-26 17:49 | 40.83624 | -74.95258 | 7273 ft | 261 kts | 108° |
| 2026-04-26 17:49 | 40.82991 | -74.93027 | 7068 ft | 258 kts | 108° |
| 2026-04-26 17:49 | 40.82371 | -74.90789 | 7018 ft | 261 kts | 111° |
| 2026-04-26 17:49 | 40.81264 | -74.88916 | 6994 ft | 258 kts | 138° |
| 2026-04-26 17:50 | 40.79897 | -74.87446 | 6804 ft | 253 kts | 138° |
| 2026-04-26 17:50 | 40.78533 | -74.85971 | 6506 ft | 253 kts | 138° |
| 2026-04-26 17:50 | 40.77174 | -74.84503 | 6208 ft | 252 kts | 138° |
| 2026-04-26 17:50 | 40.75820 | -74.83045 | 6022 ft | 247 kts | 138° |
| 2026-04-26 17:51 | 40.74952 | -74.82109 | 5991 ft | 242 kts | 138° |
| 2026-04-26 17:51 | 40.73652 | -74.80714 | 5987 ft | 240 kts | 138° |
| 2026-04-26 17:51 | 40.72356 | -74.79328 | 5988 ft | 241 kts | 138° |
| 2026-04-26 17:51 | 40.71093 | -74.77860 | 5974 ft | 243 kts | 129° |
| 2026-04-26 17:52 | 40.69670 | -74.75440 | 5761 ft | 256 kts | 124° |
| 2026-04-26 17:52 | 40.68945 | -74.74172 | 5668 ft | 258 kts | 124° |
| 2026-04-26 17:52 | 40.67872 | -74.72314 | 5545 ft | 258 kts | 124° |
| 2026-04-26 17:52 | 40.66784 | -74.70458 | 5406 ft | 254 kts | 125° |
| 2026-04-26 17:53 | 40.65701 | -74.68626 | 5287 ft | 252 kts | 125° |
| 2026-04-26 17:53 | 40.64628 | -74.66819 | 5169 ft | 251 kts | 125° |
| 2026-04-26 17:53 | 40.63544 | -74.65000 | 5049 ft | 252 kts | 125° |
| 2026-04-26 17:54 | 40.61362 | -74.61362 | 4828 ft | 254 kts | 125° |
| 2026-04-26 17:54 | 40.60259 | -74.59539 | 4700 ft | 254 kts | 125° |
| 2026-04-26 17:54 | 40.59161 | -74.57718 | 4579 ft | 254 kts | 125° |
| 2026-04-26 17:54 | 40.58063 | -74.55896 | 4467 ft | 254 kts | 125° |
| 2026-04-26 17:55 | 40.56970 | -74.54080 | 4334 ft | 252 kts | 125° |
| 2026-04-26 17:55 | 40.55901 | -74.52312 | 4230 ft | 248 kts | 125° |
| 2026-04-26 17:55 | 40.54829 | -74.50537 | 4104 ft | 247 kts | 125° |
| 2026-04-26 17:55 | 40.53767 | -74.48777 | 3990 ft | 245 kts | 125° |
| 2026-04-26 17:56 | 40.52709 | -74.47027 | 3877 ft | 244 kts | 124° |
| 2026-04-26 17:56 | 40.50642 | -74.43617 | 3635 ft | 230 kts | 124° |
| 2026-04-26 17:57 | 40.48926 | -74.40323 | 3427 ft | 202 kts | 96° |
| 2026-04-26 17:57 | 40.49001 | -74.38596 | 3362 ft | 181 kts | 74° |
| 2026-04-26 17:57 | 40.49341 | -74.37044 | 3274 ft | 175 kts | 71° |
| 2026-04-26 17:57 | 40.49701 | -74.35525 | 3192 ft | 173 kts | 71° |
| 2026-04-26 17:58 | 40.50775 | -74.30986 | 3002 ft | 181 kts | 71° |
| 2026-04-26 17:59 | 40.51743 | -74.27898 | 2775 ft | 188 kts | 47° |
| 2026-04-26 17:59 | 40.52799 | -74.26849 | 2640 ft | 196 kts | 29° |
| 2026-04-26 17:59 | 40.54048 | -74.26110 | 2489 ft | 197 kts | 27° |
| 2026-04-26 17:59 | 40.55300 | -74.25364 | 2318 ft | 197 kts | 28° |
| 2026-04-26 18:00 | 40.56531 | -74.24596 | 2152 ft | 194 kts | 29° |
| 2026-04-26 18:00 | 40.57731 | -74.23832 | 2049 ft | 188 kts | 30° |
| 2026-04-26 18:00 | 40.58874 | -74.23101 | 1935 ft | 177 kts | 30° |
| 2026-04-26 18:00 | 40.59936 | -74.22422 | 1735 ft | 165 kts | 30° |
| 2026-04-26 18:01 | 40.60954 | -74.21771 | 1543 ft | 162 kts | 29° |
| 2026-04-26 18:01 | 40.61963 | -74.21126 | 1322 ft | 160 kts | 30° |
| 2026-04-26 18:01 | 40.62955 | -74.20491 | 1131 ft | 158 kts | 30° |
| 2026-04-26 18:01 | 40.63936 | -74.19864 | 932 ft | 159 kts | 29° |
| 2026-04-26 18:02 | 40.64936 | -74.19226 | 723 ft | 160 kts | 28° |
| 2026-04-26 18:02 | 40.65611 | -74.18797 | 586 ft | 160 kts | 28° |
| 2026-04-26 18:02 | 40.66933 | -74.17947 | 286 ft | 158 kts | 26° |
| 2026-04-26 18:02 | 40.67915 | -74.17333 | 84 ft | 151 kts | 27° |
| 2026-04-26 18:03 | 40.68802 | -74.16766 | 22 ft | 129 kts | 27° |
| 2026-04-26 18:03 | 40.69455 | -74.16344 | 26 ft | 62 kts | 25° |
| 2026-04-26 18:03 | 40.69696 | -74.16302 | 21 ft | 21 kts | 347° |
| 2026-04-26 18:03 | 40.69741 | -74.16423 | 21 ft | 15 kts | 282° |
| 2026-04-26 18:04 | 40.69779 | -74.16551 | 19 ft | 15 kts | 295° |
| 2026-04-26 18:04 | 40.69806 | -74.16674 | 20 ft | 14 kts | 262° |
| 2026-04-26 18:04 | 40.69771 | -74.16788 | 21 ft | 13 kts | 236° |
| 2026-04-26 18:05 | 40.69603 | -74.16912 | 21 ft | 18 kts | 205° |
| 2026-04-26 18:05 | 40.69472 | -74.16993 | 22 ft | 24 kts | 205° |
| 2026-04-26 18:05 | 40.69304 | -74.17097 | 21 ft | 28 kts | 205° |
| 2026-04-26 18:05 | 40.69135 | -74.17206 | 21 ft | 25 kts | 207° |
| 2026-04-26 18:06 | 40.68982 | -74.17307 | 21 ft | 24 kts | 206° |
| 2026-04-26 18:06 | 40.68839 | -74.17400 | 22 ft | 23 kts | 205° |
| 2026-04-26 18:06 | 40.68699 | -74.17488 | 21 ft | 22 kts | 203° |
| 2026-04-26 18:06 | 40.68561 | -74.17568 | 24 ft | 21 kts | 205° |
| 2026-04-26 18:07 | 40.68430 | -74.17650 | 21 ft | 20 kts | 205° |
| 2026-04-26 18:07 | 40.68326 | -74.17732 | 23 ft | 14 kts | 247° |
| 2026-04-26 18:07 | 40.68349 | -74.17848 | 23 ft | 13 kts | 295° |
| 2026-04-26 18:07 | 40.68374 | -74.17919 | 21 ft | 13 kts | 295° |
| 2026-04-26 18:08 | 40.68430 | -74.18055 | 22 ft | 12 kts | 302° |
| 2026-04-26 18:08 | 40.68477 | -74.18147 | 21 ft | 11 kts | 301° |
| 2026-04-26 18:08 | 40.68499 | -74.18243 | 21 ft | 11 kts | 277° |
| 2026-04-26 18:08 | 40.68505 | -74.18333 | 23 ft | 0 kts | 275° |
| 2026-04-26 18:09 | 40.68505 | -74.18335 | 21 ft | 1 kts | 275° |
| 2026-04-26 18:09 | 40.68500 | -74.18374 | 23 ft | 7 kts | 231° |
| 2026-04-26 18:09 | 40.68460 | -74.18385 | 21 ft | 2 kts | 186° |
| 2026-04-26 18:10 | 40.68447 | -74.18386 | 22 ft | 2 kts | 186° |
| 2026-04-26 18:10 | 40.68443 | -74.18387 | 21 ft | 0 kts | 185° |